createdAt,value
2022-09-11T00:00:53.578Z,4.43
2022-09-11T00:03:21.540Z,6.23
2022-09-11T00:05:48.114Z,4.77
2022-09-11T00:08:19.521Z,5.10
2022-09-11T00:10:48.372Z,5.27
2022-09-11T00:13:21.423Z,4.50
2022-09-11T00:15:50.126Z,4.80
2022-09-11T00:18:21.631Z,4.53
2022-09-11T00:20:50.054Z,4.33
2022-09-11T00:23:18.769Z,4.33
2022-09-11T00:25:46.805Z,5.00
2022-09-11T00:28:19.786Z,4.80
2022-09-11T00:30:47.851Z,4.67
2022-09-11T00:33:15.663Z,5.50
2022-09-11T00:35:42.580Z,5.10
2022-09-11T00:38:10.045Z,5.00
2022-09-11T00:40:46.498Z,5.27
2022-09-11T00:43:16.671Z,7.47
2022-09-11T00:45:50.249Z,6.00
2022-09-11T00:48:20.177Z,5.00
2022-09-11T00:50:48.077Z,4.90
2022-09-11T00:53:17.637Z,5.47
2022-09-11T00:55:50.698Z,5.40
2022-09-11T00:58:21.739Z,5.37
2022-09-11T01:00:49.150Z,5.00
2022-09-11T01:03:15.722Z,6.03
2022-09-11T01:05:43.461Z,5.27
2022-09-11T01:08:10.610Z,5.00
2022-09-11T01:10:59.382Z,5.03
2022-09-11T01:13:45.170Z,4.97
2022-09-11T01:16:24.122Z,4.40
2022-09-11T01:19:01.053Z,5.40
2022-09-11T01:21:46.817Z,5.13
2022-09-11T01:24:25.833Z,4.90
2022-09-11T01:27:00.418Z,5.27
2022-09-11T01:29:40.083Z,5.80
2022-09-11T01:32:22.829Z,5.00
2022-09-11T01:35:04.400Z,5.23
2022-09-11T01:37:40.143Z,4.53
2022-09-11T01:40:36.797Z,6.83
2022-09-11T01:43:07.288Z,5.10
2022-09-11T01:45:34.999Z,5.30
2022-09-11T01:48:02.420Z,5.20
2022-09-11T01:50:31.261Z,5.10
2022-09-11T01:53:01.054Z,4.80
2022-09-11T01:55:34.739Z,5.13
2022-09-11T01:58:11.098Z,5.13
2022-09-11T02:00:44.711Z,5.20
2022-09-11T02:03:23.157Z,5.83
2022-09-11T02:05:53.836Z,5.30
2022-09-11T02:08:28.363Z,5.57
2022-09-11T02:11:03.663Z,5.50
2022-09-11T02:13:32.001Z,6.00
2022-09-11T02:16:06.013Z,5.97
2022-09-11T02:18:43.382Z,5.13
2022-09-11T02:21:10.265Z,6.43
2022-09-11T02:23:39.893Z,5.03
2022-09-11T02:26:08.501Z,5.27
2022-09-11T02:28:37.433Z,5.10
2022-09-11T02:31:04.407Z,5.40
2022-09-11T02:33:35.887Z,5.53
2022-09-11T02:36:11.202Z,7.20
2022-09-11T02:38:49.573Z,5.60
2022-09-11T02:41:21.763Z,5.20
2022-09-11T02:44:11.234Z,5.80
2022-09-11T02:46:58.467Z,4.97
2022-09-11T02:49:37.148Z,5.90
2022-09-11T02:52:28.303Z,5.83
2022-09-11T02:55:21.063Z,5.87
2022-09-11T02:57:53.139Z,5.47
2022-09-11T03:00:19.792Z,5.27
2022-09-11T03:02:47.370Z,6.50
2022-09-11T03:05:14.260Z,6.07
2022-09-11T03:07:41.361Z,5.90
2022-09-11T03:10:11.237Z,5.83
2022-09-11T03:12:39.151Z,5.50
2022-09-11T03:15:06.477Z,5.90
2022-09-11T03:17:33.526Z,5.87
2022-09-11T03:20:00.139Z,5.90
2022-09-11T03:22:26.738Z,5.30
2022-09-11T03:24:53.668Z,6.20
2022-09-11T03:27:21.787Z,6.10
2022-09-11T03:29:48.392Z,6.23
2022-09-11T03:32:16.178Z,5.90
2022-09-11T03:34:42.862Z,5.93
2022-09-11T03:37:09.526Z,6.20
2022-09-11T03:39:36.138Z,6.67
2022-09-11T03:42:02.920Z,5.87
2022-09-11T03:44:29.871Z,6.00
2022-09-11T03:46:57.711Z,5.80
2022-09-11T03:49:24.763Z,5.83
2022-09-11T03:51:51.479Z,6.03
2022-09-11T03:54:20.945Z,5.73
2022-09-11T03:56:47.839Z,6.03
2022-09-11T03:59:15.603Z,5.87
2022-09-11T04:01:44.273Z,6.37
2022-09-11T04:04:10.968Z,5.57
2022-09-11T04:06:41.869Z,6.07
2022-09-11T04:09:09.374Z,5.40
2022-09-11T04:11:38.969Z,6.30
2022-09-11T04:14:11.876Z,7.27
2022-09-11T04:16:40.688Z,6.70
2022-09-11T04:19:07.509Z,6.30
2022-09-11T04:21:34.813Z,6.60
2022-09-11T04:24:01.832Z,6.77
2022-09-11T04:26:31.610Z,6.30
2022-09-11T04:29:05.867Z,6.97
2022-09-11T04:31:35.295Z,6.50
2022-09-11T04:34:02.045Z,6.70
2022-09-11T04:36:32.127Z,6.97
2022-09-11T04:39:00.179Z,6.70
2022-09-11T04:41:28.208Z,6.80
2022-09-11T04:44:02.383Z,6.53
2022-09-11T04:46:31.322Z,6.27
2022-09-11T04:48:59.995Z,6.77
2022-09-11T04:51:30.114Z,8.97
2022-09-11T04:53:58.964Z,7.53
2022-09-11T04:56:34.240Z,7.53
2022-09-11T04:59:13.518Z,7.57
2022-09-11T05:01:44.110Z,7.20
2022-09-11T05:04:12.863Z,7.43
2022-09-11T05:06:41.377Z,8.17
2022-09-11T05:09:13.058Z,7.17
2022-09-11T05:11:39.643Z,7.90
2022-09-11T05:14:06.842Z,7.47
2022-09-11T05:16:36.578Z,8.00
2022-09-11T05:19:04.372Z,7.60
2022-09-11T05:21:33.649Z,8.40
2022-09-11T05:24:01.472Z,7.87
2022-09-11T05:26:34.597Z,7.70
2022-09-11T05:29:05.120Z,8.13
2022-09-11T05:31:33.558Z,8.77
2022-09-11T05:34:01.916Z,10.37
2022-09-11T05:36:31.148Z,12.63
2022-09-11T05:38:58.579Z,13.43
2022-09-11T05:41:26.160Z,13.73
2022-09-11T05:43:52.883Z,13.43
2022-09-11T05:46:22.365Z,15.40
2022-09-11T05:48:53.660Z,16.83
2022-09-11T05:51:21.771Z,18.07
2022-09-11T05:53:54.084Z,20.00
2022-09-11T05:56:25.445Z,21.13
2022-09-11T05:58:58.023Z,20.17
2022-09-11T06:01:31.597Z,20.83
2022-09-11T06:04:12.268Z,22.30
2022-09-11T06:06:40.691Z,21.33
2022-09-11T06:09:07.949Z,23.23
2022-09-11T06:11:34.914Z,21.97
2022-09-11T06:14:02.273Z,19.87
2022-09-11T06:16:31.529Z,26.37
2022-09-11T06:19:05.707Z,25.70
2022-09-11T06:21:32.259Z,22.60
2022-09-11T06:24:07.995Z,26.43
2022-09-11T06:26:35.501Z,22.00
2022-09-11T06:29:03.039Z,22.97
2022-09-11T06:31:30.705Z,23.83
2022-09-11T06:33:57.281Z,21.60
2022-09-11T06:36:30.135Z,18.87
2022-09-11T06:38:58.731Z,19.93
2022-09-11T06:41:28.333Z,20.47
2022-09-11T06:44:15.271Z,20.13
2022-09-11T06:46:42.243Z,19.90
2022-09-11T06:49:10.523Z,18.60
2022-09-11T06:51:57.015Z,18.13
2022-09-11T06:54:23.575Z,17.77
2022-09-11T06:56:52.093Z,17.97
2022-09-11T06:59:18.789Z,19.17
2022-09-11T07:01:45.406Z,18.67
2022-09-11T07:04:13.104Z,18.13
2022-09-11T07:06:41.306Z,21.40
2022-09-11T07:09:09.727Z,17.20
2022-09-11T07:11:44.915Z,16.37
2022-09-11T07:14:11.707Z,17.43
2022-09-11T07:16:41.164Z,20.30
2022-09-11T07:19:11.332Z,19.77
2022-09-11T07:21:39.711Z,19.13
2022-09-11T07:24:07.087Z,20.20
2022-09-11T07:26:37.922Z,21.73
2022-09-11T07:29:11.360Z,25.10
2022-09-11T07:31:38.670Z,21.43
2022-09-11T07:34:05.623Z,21.70
2022-09-11T07:36:34.743Z,22.33
2022-09-11T07:39:04.333Z,23.93
2022-09-11T07:41:36.200Z,24.53
2022-09-11T07:44:09.310Z,25.60
2022-09-11T07:46:40.253Z,26.20
2022-09-11T07:49:10.015Z,29.47
2022-09-11T07:51:37.839Z,30.10
2022-09-11T07:54:06.270Z,31.57
2022-09-11T07:56:34.834Z,23.60
2022-09-11T07:59:07.713Z,26.80
2022-09-11T08:01:35.614Z,23.23
2022-09-11T08:04:06.095Z,22.57
2022-09-11T08:06:35.255Z,21.00
2022-09-11T08:09:15.764Z,23.23
2022-09-11T08:11:50.300Z,22.43
2022-09-11T08:14:18.474Z,21.43
2022-09-11T08:16:48.389Z,18.27
2022-09-11T08:19:20.571Z,15.63
2022-09-11T08:21:52.612Z,16.53
2022-09-11T08:24:22.628Z,17.00
2022-09-11T08:26:51.559Z,14.70
2022-09-11T08:29:19.226Z,15.90
2022-09-11T08:31:47.122Z,16.03
2022-09-11T08:34:15.401Z,16.27
2022-09-11T08:36:41.952Z,15.97
2022-09-11T08:39:09.822Z,18.87
2022-09-11T08:41:49.103Z,18.10
2022-09-11T08:44:28.195Z,17.60
2022-09-11T08:47:13.874Z,22.00
2022-09-11T08:49:49.491Z,17.30
2022-09-11T08:52:16.887Z,18.23
2022-09-11T08:54:46.328Z,20.50
2022-09-11T08:57:22.277Z,17.30
2022-09-11T09:00:19.111Z,18.10
2022-09-11T09:03:06.970Z,18.73
2022-09-11T09:05:54.869Z,17.47
2022-09-11T09:08:27.729Z,18.43
2022-09-11T09:11:08.516Z,17.60
2022-09-11T09:14:02.822Z,17.10
2022-09-11T09:16:39.348Z,17.17
2022-09-11T09:19:11.108Z,17.47
2022-09-11T09:21:42.152Z,18.23
2022-09-11T09:24:19.496Z,18.13
2022-09-11T09:26:52.728Z,20.57
2022-09-11T09:29:24.943Z,18.50
2022-09-11T09:31:59.150Z,19.00
2022-09-11T09:34:31.149Z,19.53
2022-09-11T09:37:04.293Z,18.67
2022-09-11T09:39:31.867Z,22.43
2022-09-11T09:41:59.078Z,19.60
2022-09-11T09:44:46.276Z,20.30
2022-09-11T09:47:13.898Z,21.77
2022-09-11T09:49:40.814Z,19.47
2022-09-11T09:52:17.075Z,18.53
2022-09-11T09:54:44.333Z,18.70
2022-09-11T09:57:11.760Z,17.20
2022-09-11T09:59:43.800Z,16.93
2022-09-11T10:02:10.370Z,16.33
2022-09-11T10:04:36.964Z,15.33
2022-09-11T10:07:11.909Z,18.17
2022-09-11T10:09:46.864Z,16.10
2022-09-11T10:12:22.193Z,15.97
2022-09-11T10:14:52.736Z,15.57
2022-09-11T10:17:21.108Z,15.30
2022-09-11T10:19:47.839Z,15.40
2022-09-11T10:22:32.410Z,16.40
2022-09-11T10:25:10.936Z,15.57
2022-09-11T10:27:45.668Z,15.20
2022-09-11T10:30:28.090Z,15.57
2022-09-11T10:32:55.265Z,16.73
2022-09-11T10:35:25.781Z,16.70
2022-09-11T10:38:18.899Z,16.23
2022-09-11T10:40:57.841Z,15.63
2022-09-11T10:43:27.603Z,17.60
2022-09-11T10:46:26.048Z,16.73
2022-09-11T10:48:55.228Z,14.90
2022-09-11T10:51:24.304Z,13.53
2022-09-11T10:54:04.397Z,14.70
2022-09-11T10:56:33.278Z,18.47
2022-09-11T10:59:03.842Z,15.17
2022-09-11T11:01:30.435Z,17.00
2022-09-11T11:03:57.089Z,15.27
2022-09-11T11:07:04.676Z,16.73
2022-09-11T11:09:57.229Z,17.93
2022-09-11T11:12:47.659Z,17.57
2022-09-11T11:15:34.848Z,17.77
2022-09-11T11:18:26.369Z,16.97
2022-09-11T11:21:28.541Z,17.97
2022-09-11T11:24:12.170Z,15.03
2022-09-11T11:26:56.792Z,14.40
2022-09-11T11:29:54.967Z,15.30
2022-09-11T11:32:40.470Z,15.23
2022-09-11T11:35:28.311Z,16.13
2022-09-11T11:38:12.723Z,14.97
2022-09-11T11:40:43.811Z,14.23
2022-09-11T11:43:12.831Z,14.57
2022-09-11T11:45:44.955Z,14.53
2022-09-11T11:48:17.700Z,14.13
2022-09-11T11:50:47.445Z,13.43
2022-09-11T11:53:19.995Z,13.47
2022-09-11T11:55:57.186Z,12.50
2022-09-11T11:58:39.425Z,13.30
2022-09-11T12:01:12.155Z,11.57
2022-09-11T12:03:42.372Z,11.10
2022-09-11T12:06:08.911Z,11.23
2022-09-11T12:08:45.522Z,9.80
2022-09-11T12:11:15.138Z,10.60
2022-09-11T12:13:44.127Z,10.33
2022-09-11T12:16:19.175Z,10.87
2022-09-11T12:19:19.737Z,10.20
2022-09-11T12:21:52.471Z,10.13
2022-09-11T12:24:44.316Z,10.27
2022-09-11T12:27:36.190Z,9.17
2022-09-11T12:30:29.064Z,10.40
2022-09-11T12:32:57.126Z,9.70
2022-09-11T12:35:43.301Z,9.53
2022-09-11T12:38:09.830Z,10.77
2022-09-11T12:40:53.252Z,9.57
2022-09-11T12:43:35.165Z,9.37
2022-09-11T12:46:03.394Z,9.87
2022-09-11T12:48:41.265Z,7.80
2022-09-11T12:51:19.463Z,7.40
2022-09-11T12:53:50.282Z,7.70
2022-09-11T12:56:19.523Z,7.63
2022-09-11T12:58:49.940Z,7.87
2022-09-11T13:01:30.624Z,8.30
2022-09-11T13:04:09.379Z,7.97
2022-09-11T13:06:40.517Z,6.70
2022-09-11T13:09:07.660Z,7.20
2022-09-11T13:11:38.243Z,7.10
2022-09-11T13:14:30.389Z,7.20
2022-09-11T13:16:58.866Z,7.00
2022-09-11T13:19:32.838Z,7.80
2022-09-11T13:21:59.814Z,7.97
2022-09-11T13:24:32.516Z,7.07
2022-09-11T13:27:09.461Z,7.17
2022-09-11T13:29:37.174Z,6.73
2022-09-11T13:32:14.198Z,6.30
2022-09-11T13:34:47.436Z,6.43
2022-09-11T13:37:21.883Z,6.03
2022-09-11T13:39:48.517Z,6.03
2022-09-11T13:42:17.847Z,6.37
2022-09-11T13:44:47.049Z,5.87
2022-09-11T13:47:22.308Z,6.40
2022-09-11T13:49:51.419Z,6.00
2022-09-11T13:52:19.091Z,6.23
2022-09-11T13:54:48.533Z,5.77
2022-09-11T13:57:21.032Z,5.53
2022-09-11T13:59:56.755Z,5.33
2022-09-11T14:02:35.658Z,4.87
2022-09-11T14:05:08.533Z,6.20
2022-09-11T14:07:43.286Z,5.53
2022-09-11T14:10:39.555Z,5.67
2022-09-11T14:13:20.403Z,6.00
2022-09-11T14:16:00.558Z,5.00
2022-09-11T14:18:41.862Z,5.20
2022-09-11T14:21:14.033Z,4.43
2022-09-11T14:23:43.988Z,5.00
2022-09-11T14:26:17.039Z,5.03
2022-09-11T14:28:56.833Z,5.43
2022-09-11T14:31:44.718Z,5.10
2022-09-11T14:34:15.134Z,4.93
2022-09-11T14:36:46.475Z,5.17
2022-09-11T14:39:24.363Z,5.03
2022-09-11T14:41:52.292Z,5.30
2022-09-11T14:44:19.990Z,5.43
2022-09-11T14:46:46.609Z,5.67
2022-09-11T14:49:13.222Z,5.20
2022-09-11T14:51:40.959Z,5.60
2022-09-11T14:54:13.174Z,5.50
2022-09-11T14:56:40.329Z,5.33
2022-09-11T14:59:07.006Z,5.37
2022-09-11T15:01:33.746Z,6.40
2022-09-11T15:04:01.808Z,5.67
2022-09-11T15:06:28.371Z,5.23
2022-09-11T15:08:54.914Z,6.33
2022-09-11T15:11:21.444Z,6.83
2022-09-11T15:14:13.461Z,6.37
2022-09-11T15:16:35.329Z,6.40
2022-09-11T15:19:01.865Z,6.00
2022-09-11T15:21:28.620Z,5.30
2022-09-11T15:23:55.641Z,5.97
2022-09-11T15:26:22.205Z,5.47
2022-09-11T15:28:50.931Z,5.73
2022-09-11T15:31:18.554Z,6.13
2022-09-11T15:33:52.973Z,5.97
2022-09-11T15:36:21.357Z,4.67
2022-09-11T15:38:53.249Z,4.90
2022-09-11T15:41:21.935Z,5.07
2022-09-11T15:43:50.584Z,5.13
2022-09-11T15:46:21.910Z,5.30
2022-09-11T15:48:49.320Z,5.47
2022-09-11T15:51:24.032Z,5.40
2022-09-11T15:53:52.340Z,5.27
2022-09-11T15:56:25.729Z,4.97
2022-09-11T15:58:52.724Z,5.40
2022-09-11T16:01:25.705Z,5.23
2022-09-11T16:03:57.446Z,5.23
2022-09-11T16:06:26.502Z,4.90
2022-09-11T16:08:57.611Z,5.00
2022-09-11T16:11:25.139Z,5.87
2022-09-11T16:13:53.531Z,5.23
2022-09-11T16:16:20.364Z,4.57
2022-09-11T16:18:47.126Z,4.87
2022-09-11T16:21:15.025Z,5.30
2022-09-11T16:23:41.734Z,5.40
2022-09-11T16:26:11.378Z,5.30
2022-09-11T16:28:39.571Z,4.93
2022-09-11T16:31:07.228Z,4.90
2022-09-11T16:33:40.486Z,6.30
2022-09-11T16:36:09.836Z,6.77
2022-09-11T16:38:38.547Z,6.30
2022-09-11T16:41:12.465Z,6.73
2022-09-11T16:43:40.353Z,7.60
2022-09-11T16:46:08.644Z,6.63
2022-09-11T16:48:37.087Z,6.33
2022-09-11T16:51:03.802Z,6.23
2022-09-11T16:53:34.301Z,6.40
2022-09-11T16:56:08.616Z,6.13
2022-09-11T16:58:35.392Z,6.77
2022-09-11T17:01:08.903Z,6.80
2022-09-11T17:03:41.354Z,6.20
2022-09-11T17:06:08.877Z,5.87
2022-09-11T17:08:36.681Z,5.93
2022-09-11T17:11:04.448Z,5.63
2022-09-11T17:13:31.357Z,5.60
2022-09-11T17:16:06.837Z,5.63
2022-09-11T17:18:33.500Z,5.27
2022-09-11T17:21:05.016Z,5.57
2022-09-11T17:23:32.729Z,5.33
2022-09-11T17:25:59.344Z,5.23
2022-09-11T17:28:26.574Z,4.83
2022-09-11T17:30:53.117Z,4.80
2022-09-11T17:33:19.783Z,5.20
2022-09-11T17:35:47.282Z,5.20
2022-09-11T17:38:13.805Z,4.53
2022-09-11T17:40:41.420Z,4.73
2022-09-11T17:43:07.973Z,4.53
2022-09-11T17:45:34.501Z,5.03
2022-09-11T17:48:01.659Z,4.73
2022-09-11T17:50:28.183Z,4.87
2022-09-11T17:52:54.734Z,5.30
2022-09-11T17:55:21.642Z,5.40
2022-09-11T17:57:54.437Z,5.20
2022-09-11T18:00:21.137Z,5.40
2022-09-11T18:02:50.068Z,5.87
2022-09-11T18:05:16.665Z,6.43
2022-09-11T18:07:43.202Z,6.10
2022-09-11T18:10:09.915Z,7.13
2022-09-11T18:12:36.561Z,5.90
2022-09-11T18:15:03.868Z,5.43
2022-09-11T18:17:30.452Z,6.63
2022-09-11T18:19:57.004Z,5.60
2022-09-11T18:22:23.621Z,5.73
2022-09-11T18:24:53.147Z,6.40
2022-09-11T18:27:19.969Z,6.80
2022-09-11T18:29:46.622Z,5.80
2022-09-11T18:32:13.152Z,6.20
2022-09-11T18:34:39.716Z,5.87
2022-09-11T18:37:07.807Z,5.80
2022-09-11T18:39:34.336Z,6.23
2022-09-11T18:42:01.884Z,5.87
2022-09-11T18:44:28.795Z,7.10
2022-09-11T18:46:55.593Z,6.80
2022-09-11T18:49:22.571Z,6.87
2022-09-11T18:51:49.631Z,7.20
2022-09-11T18:54:20.124Z,6.60
2022-09-11T18:56:48.617Z,7.23
2022-09-11T18:59:15.644Z,7.20
2022-09-11T19:01:42.421Z,6.87
2022-09-11T19:04:10.861Z,7.10
2022-09-11T19:06:41.086Z,7.43
2022-09-11T19:09:10.436Z,6.90
2022-09-11T19:11:37.700Z,6.90
2022-09-11T19:14:06.829Z,6.93
2022-09-11T19:16:34.252Z,5.90
2022-09-11T19:19:01.108Z,6.10
2022-09-11T19:21:27.664Z,6.57
2022-09-11T19:23:57.667Z,6.97
2022-09-11T19:26:32.720Z,6.87
2022-09-11T19:29:00.274Z,7.20
2022-09-11T19:31:29.415Z,6.37
2022-09-11T19:33:57.034Z,6.83
2022-09-11T19:36:25.893Z,6.77
2022-09-11T19:38:55.864Z,6.83
2022-09-11T19:41:25.930Z,6.67
2022-09-11T19:43:54.109Z,6.67
2022-09-11T19:46:24.183Z,6.53
2022-09-11T19:49:00.335Z,6.50
2022-09-11T19:51:29.347Z,6.53
2022-09-11T19:53:57.577Z,7.27
2022-09-11T19:56:25.111Z,6.50
2022-09-11T19:58:52.030Z,6.97
2022-09-11T20:01:23.918Z,6.70
2022-09-11T20:03:53.007Z,7.43
2022-09-11T20:06:21.709Z,6.10
2022-09-11T20:08:49.903Z,6.70
2022-09-11T20:11:19.725Z,7.07
2022-09-11T20:13:46.283Z,6.70
2022-09-11T20:16:20.133Z,6.87
2022-09-11T20:18:47.049Z,6.33
2022-09-11T20:21:15.817Z,6.27
2022-09-11T20:23:43.836Z,7.60
2022-09-11T20:26:17.374Z,6.73
2022-09-11T20:28:45.254Z,6.90
2022-09-11T20:31:22.870Z,8.03
2022-09-11T20:33:49.949Z,6.80
2022-09-11T20:36:17.343Z,7.10
2022-09-11T20:38:44.410Z,7.20
2022-09-11T20:41:12.679Z,6.03
2022-09-11T20:43:40.216Z,6.37
2022-09-11T20:46:07.210Z,7.10
2022-09-11T20:48:34.140Z,6.70
2022-09-11T20:51:19.093Z,6.70
2022-09-11T20:53:45.826Z,7.17
2022-09-11T20:56:14.744Z,6.63
2022-09-11T20:58:41.494Z,7.10
2022-09-11T21:01:10.513Z,6.33
2022-09-11T21:03:37.159Z,6.97
2022-09-11T21:06:07.962Z,7.10
2022-09-11T21:08:35.105Z,6.57
2022-09-11T21:11:05.372Z,6.97
2022-09-11T21:13:39.016Z,7.20
2022-09-11T21:16:08.031Z,6.47
2022-09-11T21:18:34.937Z,6.53
2022-09-11T21:21:01.814Z,7.30
2022-09-11T21:23:28.548Z,7.03
2022-09-11T21:25:55.167Z,6.43
2022-09-11T21:28:22.155Z,6.23
2022-09-11T21:30:48.846Z,5.83
2022-09-11T21:33:15.455Z,6.40
2022-09-11T21:35:42.275Z,5.93
2022-09-11T21:38:08.889Z,6.90
2022-09-11T21:40:35.499Z,6.30
2022-09-11T21:43:02.080Z,6.50
2022-09-11T21:45:28.654Z,6.07
2022-09-11T21:47:55.236Z,7.23
2022-09-11T21:50:21.775Z,6.43
2022-09-11T21:52:48.633Z,6.20
2022-09-11T21:55:15.603Z,6.20
2022-09-11T21:57:42.181Z,5.87
2022-09-11T22:00:11.548Z,6.27
2022-09-11T22:02:38.343Z,5.97
2022-09-11T22:05:05.376Z,6.00
2022-09-11T22:07:32.457Z,6.90
2022-09-11T22:09:59.439Z,6.50
2022-09-11T22:12:26.089Z,6.13
2022-09-11T22:14:54.845Z,6.47
2022-09-11T22:17:22.209Z,6.17
2022-09-11T22:19:49.244Z,6.57
2022-09-11T22:22:15.970Z,6.17
2022-09-11T22:24:42.617Z,7.03
2022-09-11T22:27:09.803Z,6.77
2022-09-11T22:29:37.161Z,6.20
2022-09-11T22:32:04.898Z,6.37
2022-09-11T22:34:35.728Z,6.37
2022-09-11T22:37:02.799Z,6.10
2022-09-11T22:39:31.794Z,6.40
2022-09-11T22:41:59.691Z,6.00
2022-09-11T22:44:26.602Z,6.10
2022-09-11T22:46:53.433Z,5.53
2022-09-11T22:49:19.980Z,6.40
2022-09-11T22:51:46.641Z,6.13
2022-09-11T22:54:13.944Z,7.50
2022-09-11T22:56:40.547Z,6.77
2022-09-11T22:59:08.109Z,7.07
2022-09-11T23:01:35.215Z,7.77
2022-09-11T23:04:01.930Z,6.70
2022-09-11T23:06:47.254Z,7.10
2022-09-11T23:09:16.871Z,6.27
2022-09-11T23:11:45.146Z,6.00
2022-09-11T23:14:14.558Z,6.60
2022-09-11T23:16:41.929Z,7.23
2022-09-11T23:19:08.619Z,6.50
2022-09-11T23:21:35.953Z,6.90
2022-09-11T23:24:06.108Z,6.50
2022-09-11T23:26:33.304Z,6.17
2022-09-11T23:29:00.173Z,6.60
2022-09-11T23:31:29.857Z,7.23
2022-09-11T23:33:59.515Z,7.10
2022-09-11T23:36:27.249Z,8.30
2022-09-11T23:38:53.911Z,7.47
2022-09-11T23:41:20.853Z,6.70
2022-09-11T23:43:47.743Z,6.70
2022-09-11T23:46:14.698Z,6.63
2022-09-11T23:48:41.879Z,6.90
2022-09-11T23:51:10.336Z,6.33
2022-09-11T23:53:39.324Z,6.30
2022-09-11T23:56:10.519Z,6.37
2022-09-11T23:58:45.794Z,6.23
